Terminal Aerodrome Forecast
Issued by NWS

Home | Current Version | Previous Version | Graphics & Text | Print | Product List | Glossary On
Versions: 1 2 3 4 5 6 7 8 9 10 11 12 13 14 15
000
FTUS43 KBIS 241734
TAFMOT
TAF
KMOT 241734Z 2418/2518 09008KT P6SM SCT035 SCT050 SCT070
     FM250300 07005KT P6SM BKN035 OVC060
     FM251100 03005KT P6SM SCT025 OVC035=

USA.gov is the U.S. government's official web portal to all federal, state and local government web resources and services.